N6A EDNP-LIPZ
Flight info
| Callsign | N6A |
|---|---|
| Flight time | N/A |
| Altitude | 15000 |
| Route | SBG/N0188F140 DCT UNKEN/N0189F150 DCT MALUG |
| Aircraft | DA42/L-SBDGRY/S |
Departure
| Time | 2026-05-05 16:35 |
|---|---|
| Airport | Pfarrkirchen Airfield (EDNP) |
Arrival
| Time | N/A |
|---|---|
| Airport | Venice Marco Polo Airport (LIPZ) |
| Time | Latitude | Longitude | Altitude | Speed | Heading |
|---|---|---|---|---|---|
| 2026-05-05 16:31 | 48.42170 | 12.86814 | 1266 ft | 0 kts | 157° |
| 2026-05-05 16:33 | 48.42162 | 12.86790 | 1267 ft | 6 kts | 4° |
| 2026-05-05 16:33 | 48.42139 | 12.86822 | 1266 ft | 6 kts | 167° |
| 2026-05-05 16:34 | 48.42142 | 12.86883 | 1266 ft | 12 kts | 61° |
| 2026-05-05 16:34 | 48.42197 | 12.86998 | 1266 ft | 10 kts | 337° |
| 2026-05-05 16:34 | 48.42134 | 12.86790 | 1266 ft | 52 kts | 247° |
| 2026-05-05 16:34 | 48.41909 | 12.86042 | 1293 ft | 95 kts | 245° |
| 2026-05-05 16:35 | 48.41604 | 12.85325 | 1629 ft | 84 kts | 223° |
| 2026-05-05 16:35 | 48.41011 | 12.85415 | 1807 ft | 101 kts | 148° |
| 2026-05-05 16:35 | 48.40402 | 12.85921 | 2097 ft | 101 kts | 158° |
| 2026-05-05 16:35 | 48.39720 | 12.86269 | 2360 ft | 104 kts | 167° |
| 2026-05-05 16:36 | 48.38988 | 12.86497 | 2629 ft | 107 kts | 173° |
| 2026-05-05 16:36 | 48.38203 | 12.86655 | 2937 ft | 109 kts | 177° |
| 2026-05-05 16:36 | 48.37344 | 12.86768 | 3173 ft | 121 kts | 179° |
| 2026-05-05 16:36 | 48.36441 | 12.86855 | 3434 ft | 126 kts | 179° |
| 2026-05-05 16:37 | 48.35445 | 12.86938 | 3763 ft | 125 kts | 180° |
| 2026-05-05 16:37 | 48.34544 | 12.87021 | 4002 ft | 126 kts | 175° |
| 2026-05-05 16:37 | 48.33662 | 12.87114 | 4229 ft | 126 kts | 175° |
| 2026-05-05 16:37 | 48.32754 | 12.87195 | 4466 ft | 126 kts | 176° |
| 2026-05-05 16:38 | 48.31855 | 12.87263 | 4706 ft | 125 kts | 176° |
| 2026-05-05 16:38 | 48.30918 | 12.87305 | 4969 ft | 124 kts | 184° |
| 2026-05-05 16:38 | 48.29966 | 12.87329 | 5244 ft | 124 kts | 182° |
| 2026-05-05 16:38 | 48.29002 | 12.87373 | 5528 ft | 123 kts | 181° |
| 2026-05-05 16:39 | 48.28058 | 12.87428 | 5807 ft | 122 kts | 181° |
| 2026-05-05 16:39 | 48.27106 | 12.87485 | 6079 ft | 122 kts | 180° |
| 2026-05-05 16:39 | 48.26157 | 12.87549 | 6365 ft | 121 kts | 180° |
| 2026-05-05 16:39 | 48.25222 | 12.87612 | 6634 ft | 121 kts | 180° |
| 2026-05-05 16:40 | 48.24274 | 12.87675 | 6911 ft | 121 kts | 180° |
| 2026-05-05 16:40 | 48.23347 | 12.87738 | 7181 ft | 120 kts | 180° |
| 2026-05-05 16:40 | 48.22426 | 12.87798 | 7444 ft | 121 kts | 180° |
| 2026-05-05 16:40 | 48.21524 | 12.87859 | 7713 ft | 120 kts | 180° |
| 2026-05-05 16:41 | 48.20600 | 12.87920 | 7974 ft | 120 kts | 180° |
| 2026-05-05 16:41 | 48.19708 | 12.87979 | 8230 ft | 120 kts | 179° |
| 2026-05-05 16:41 | 48.18815 | 12.88039 | 8487 ft | 120 kts | 179° |
| 2026-05-05 16:41 | 48.17868 | 12.88103 | 8766 ft | 119 kts | 179° |
| 2026-05-05 16:42 | 48.16905 | 12.88168 | 9053 ft | 118 kts | 179° |
| 2026-05-05 16:42 | 48.15958 | 12.88231 | 9323 ft | 118 kts | 179° |
| 2026-05-05 16:42 | 48.15014 | 12.88293 | 9589 ft | 118 kts | 179° |
| 2026-05-05 16:42 | 48.14137 | 12.88352 | 9840 ft | 118 kts | 179° |
| 2026-05-05 16:43 | 48.13244 | 12.88412 | 10098 ft | 118 kts | 179° |
| 2026-05-05 16:43 | 48.12336 | 12.88473 | 10329 ft | 119 kts | 179° |
| 2026-05-05 16:43 | 48.11431 | 12.88533 | 10570 ft | 120 kts | 179° |
| 2026-05-05 16:43 | 48.10547 | 12.88592 | 10815 ft | 119 kts | 179° |
| 2026-05-05 16:44 | 48.09589 | 12.88657 | 11069 ft | 120 kts | 179° |
| 2026-05-05 16:44 | 48.08667 | 12.88718 | 11303 ft | 121 kts | 179° |
| 2026-05-05 16:44 | 48.07774 | 12.88776 | 11525 ft | 122 kts | 179° |
| 2026-05-05 16:44 | 48.06873 | 12.88837 | 11747 ft | 123 kts | 179° |
| 2026-05-05 16:45 | 48.05994 | 12.88896 | 11963 ft | 123 kts | 180° |
| 2026-05-05 16:45 | 48.05063 | 12.88958 | 12186 ft | 124 kts | 180° |
| 2026-05-05 16:45 | 48.04102 | 12.89021 | 12410 ft | 125 kts | 180° |
| 2026-05-05 16:45 | 48.03122 | 12.89086 | 12630 ft | 126 kts | 180° |
| 2026-05-05 16:46 | 48.02121 | 12.89153 | 12862 ft | 126 kts | 180° |
| 2026-05-05 16:46 | 48.01134 | 12.89218 | 13077 ft | 128 kts | 180° |